createdAt,value
2023-03-06T00:01:31.122Z,100608.75
2023-03-06T00:03:57.660Z,100604.41
2023-03-06T00:06:24.225Z,100598.94
2023-03-06T00:08:50.660Z,100603.94
2023-03-06T00:11:17.399Z,100600.03
2023-03-06T00:13:43.878Z,100603.09
2023-03-06T00:16:10.333Z,100602.38
2023-03-06T00:18:36.881Z,100595.31
2023-03-06T00:21:07.094Z,100588.41
2023-03-06T00:23:33.592Z,100588.78
2023-03-06T00:26:00.035Z,100585.50
2023-03-06T00:28:27.235Z,100586.09
2023-03-06T00:30:53.694Z,100580.63
2023-03-06T00:33:20.151Z,100580.28
2023-03-06T00:35:46.551Z,100586.25
2023-03-06T00:38:13.616Z,100576.28
2023-03-06T00:40:40.167Z,100575.09
2023-03-06T00:43:06.632Z,100573.13
2023-03-06T00:45:33.232Z,100571.66
2023-03-06T00:47:59.807Z,100571.81
2023-03-06T00:50:26.462Z,100568.03
2023-03-06T00:52:52.843Z,100571.56
2023-03-06T00:55:19.306Z,100563.78
2023-03-06T00:57:45.741Z,100559.06
2023-03-06T01:00:13.835Z,100559.44
2023-03-06T01:02:40.590Z,100552.78
2023-03-06T01:05:07.921Z,100549.84
2023-03-06T01:07:36.581Z,100549.84
2023-03-06T01:10:05.251Z,100540.63
2023-03-06T01:12:31.755Z,100543.91
2023-03-06T01:14:58.174Z,100538.56
2023-03-06T01:17:24.621Z,100531.91
2023-03-06T01:19:51.040Z,100523.91
2023-03-06T01:22:17.438Z,100522.22
2023-03-06T01:24:43.861Z,100512.28
2023-03-06T01:27:10.368Z,100522.81
2023-03-06T01:29:36.838Z,100527.78
2023-03-06T01:32:03.493Z,100525.13
2023-03-06T01:34:30.052Z,100515.41
2023-03-06T01:36:56.518Z,100516.28
2023-03-06T01:39:22.982Z,100516.50
2023-03-06T01:41:49.411Z,100511.78
2023-03-06T01:44:15.870Z,100515.78
2023-03-06T01:46:44.569Z,100517.84
2023-03-06T01:49:29.440Z,100510.19
2023-03-06T01:52:01.747Z,100509.97
2023-03-06T01:54:33.107Z,100509.72
2023-03-06T01:57:05.626Z,100509.22
2023-03-06T01:59:35.220Z,100508.50
2023-03-06T02:02:03.504Z,100509.84
2023-03-06T02:04:30.682Z,100505.22
2023-03-06T02:07:00.206Z,100507.66
2023-03-06T02:09:29.963Z,100502.44
2023-03-06T02:11:56.376Z,100502.78
2023-03-06T02:14:23.343Z,100503.53
2023-03-06T02:16:50.588Z,100504.03
2023-03-06T02:20:03.234Z,100501.47
2023-03-06T02:22:49.810Z,100500.28
2023-03-06T02:25:33.841Z,100496.50
2023-03-06T02:28:01.241Z,100502.44
2023-03-06T02:30:29.292Z,100498.94
2023-03-06T02:32:56.849Z,100492.41
2023-03-06T02:35:32.881Z,100494.69
2023-03-06T02:38:05.112Z,100490.44
2023-03-06T02:40:31.949Z,100488.59
2023-03-06T02:42:59.265Z,100478.56
2023-03-06T02:45:45.246Z,100479.91
2023-03-06T02:48:13.713Z,100477.44
2023-03-06T02:50:41.433Z,100476.63
2023-03-06T02:53:09.561Z,100468.03
2023-03-06T02:55:36.614Z,100464.50
2023-03-06T02:58:03.631Z,100472.50
2023-03-06T03:00:30.814Z,100463.91
2023-03-06T03:02:57.390Z,100456.13
2023-03-06T03:05:24.380Z,100447.41
2023-03-06T03:07:50.896Z,100446.09
2023-03-06T03:10:17.605Z,100440.25
2023-03-06T03:12:45.131Z,100434.94
2023-03-06T03:15:12.176Z,100432.50
2023-03-06T03:17:40.366Z,100429.72
2023-03-06T03:20:09.932Z,100430.06
2023-03-06T03:22:36.389Z,100428.50
2023-03-06T03:25:04.127Z,100423.19
2023-03-06T03:27:30.672Z,100423.31
2023-03-06T03:29:58.435Z,100420.84
2023-03-06T03:32:25.242Z,100415.41
2023-03-06T03:34:51.860Z,100411.81
2023-03-06T03:37:18.911Z,100404.91
2023-03-06T03:39:45.307Z,100400.28
2023-03-06T03:42:11.726Z,100398.81
2023-03-06T03:44:38.184Z,100400.91
2023-03-06T03:47:05.200Z,100398.81
2023-03-06T03:49:31.640Z,100396.78
2023-03-06T03:51:58.073Z,100397.97
2023-03-06T03:54:24.626Z,100397.25
2023-03-06T03:56:51.129Z,100390.56
2023-03-06T03:59:17.510Z,100394.34
2023-03-06T04:01:45.863Z,100392.06
2023-03-06T04:04:12.725Z,100387.44
2023-03-06T04:06:39.154Z,100385.72
2023-03-06T04:09:05.725Z,100378.81
2023-03-06T04:11:32.160Z,100375.44
2023-03-06T04:13:58.781Z,100378.19
2023-03-06T04:16:25.338Z,100376.63
2023-03-06T04:18:51.849Z,100373.72
2023-03-06T04:21:18.291Z,100371.41
2023-03-06T04:23:44.821Z,100369.25
2023-03-06T04:26:11.371Z,100365.63
2023-03-06T04:28:37.867Z,100362.59
2023-03-06T04:31:04.651Z,100371.53
2023-03-06T04:33:31.268Z,100365.25
2023-03-06T04:35:57.720Z,100361.44
2023-03-06T04:38:24.138Z,100362.19
2023-03-06T04:40:50.646Z,100361.09
2023-03-06T04:43:17.524Z,100358.81
2023-03-06T04:45:44.044Z,100356.00
2023-03-06T04:48:14.372Z,100354.91
2023-03-06T04:50:41.028Z,100352.34
2023-03-06T04:53:08.630Z,100347.97
2023-03-06T04:55:35.266Z,100346.66
2023-03-06T04:58:01.744Z,100337.34
2023-03-06T05:00:31.441Z,100347.28
2023-03-06T05:02:59.954Z,100344.88
2023-03-06T05:05:27.420Z,100340.47
2023-03-06T05:07:53.966Z,100341.19
2023-03-06T05:10:21.184Z,100347.28
2023-03-06T05:12:47.688Z,100335.28
2023-03-06T05:15:15.057Z,100333.78
2023-03-06T05:17:41.799Z,100327.91
2023-03-06T05:20:10.540Z,100332.22
2023-03-06T05:22:37.269Z,100330.88
2023-03-06T05:25:04.953Z,100322.34
2023-03-06T05:27:31.464Z,100324.22
2023-03-06T05:29:58.077Z,100325.00
2023-03-06T05:32:24.597Z,100332.72
2023-03-06T05:34:51.173Z,100327.66
2023-03-06T05:37:17.637Z,100329.19
2023-03-06T05:39:44.297Z,100329.00
2023-03-06T05:42:10.716Z,100334.94
2023-03-06T05:44:37.999Z,100333.81
2023-03-06T05:47:04.791Z,100337.81
2023-03-06T05:49:33.823Z,100331.28
2023-03-06T05:52:01.529Z,100322.22
2023-03-06T05:54:28.056Z,100328.41
2023-03-06T05:56:54.598Z,100323.09
2023-03-06T05:59:21.120Z,100329.97
2023-03-06T06:01:47.589Z,100325.94
2023-03-06T06:04:14.010Z,100325.66
2023-03-06T06:06:40.596Z,100327.16
2023-03-06T06:09:07.098Z,100331.16
2023-03-06T06:11:33.603Z,100328.63
2023-03-06T06:14:00.124Z,100330.91
2023-03-06T06:16:26.623Z,100333.75
2023-03-06T06:18:53.083Z,100331.66
2023-03-06T06:21:19.528Z,100327.31
2023-03-06T06:23:46.246Z,100328.41
2023-03-06T06:26:12.733Z,100327.19
2023-03-06T06:28:39.184Z,100325.38
2023-03-06T06:31:12.651Z,100322.03
2023-03-06T06:33:40.601Z,100326.28
2023-03-06T06:36:15.978Z,100328.47
2023-03-06T06:38:42.511Z,100331.09
2023-03-06T06:41:38.886Z,100320.34
2023-03-06T06:43:58.074Z,100324.19
2023-03-06T06:47:10.872Z,100325.22
2023-03-06T06:49:13.121Z,100318.06
2023-03-06T06:51:40.106Z,100319.00
2023-03-06T06:54:06.958Z,100320.75
2023-03-06T06:56:33.464Z,100330.84
2023-03-06T06:59:15.629Z,100325.69
2023-03-06T07:01:43.524Z,100335.56
2023-03-06T07:04:12.936Z,100334.56
2023-03-06T07:06:39.572Z,100334.00
2023-03-06T07:09:06.126Z,100338.84
2023-03-06T07:11:32.640Z,100340.97
2023-03-06T07:13:59.317Z,100345.50
2023-03-06T07:16:25.805Z,100348.81
2023-03-06T07:18:52.248Z,100351.00
2023-03-06T07:21:18.772Z,100344.16
2023-03-06T07:23:45.261Z,100337.63
2023-03-06T07:26:11.757Z,100344.16
2023-03-06T07:28:51.512Z,100342.84
2023-03-06T07:31:19.951Z,100338.63
2023-03-06T07:33:46.428Z,100344.66
2023-03-06T07:36:13.920Z,100331.03
2023-03-06T07:38:40.631Z,100332.41
2023-03-06T07:41:13.126Z,100325.25
2023-03-06T07:43:41.238Z,100331.72
2023-03-06T07:46:08.402Z,100329.47
2023-03-06T07:48:36.445Z,100337.00
2023-03-06T07:51:06.435Z,100327.59
2023-03-06T07:53:34.194Z,100335.09
2023-03-06T07:56:00.900Z,100325.97
2023-03-06T07:58:27.427Z,100326.00
2023-03-06T08:00:53.896Z,100322.91
2023-03-06T08:03:20.504Z,100334.56
2023-03-06T08:05:47.166Z,100321.38
2023-03-06T08:08:13.723Z,100316.00
2023-03-06T08:10:40.254Z,100313.59
2023-03-06T08:13:06.720Z,100320.50
2023-03-06T08:15:33.264Z,100312.31
2023-03-06T08:17:59.912Z,100306.03
2023-03-06T08:20:26.423Z,100313.94
2023-03-06T08:22:52.898Z,100307.66
2023-03-06T08:25:19.489Z,100309.72
2023-03-06T08:27:47.396Z,100308.09
2023-03-06T08:30:14.740Z,100321.75
2023-03-06T08:32:41.412Z,100315.31
2023-03-06T08:35:08.414Z,100308.84
2023-03-06T08:37:34.982Z,100314.50
2023-03-06T08:40:04.490Z,100314.28
2023-03-06T08:42:31.944Z,100308.81
2023-03-06T08:44:58.432Z,100297.09
2023-03-06T08:47:25.014Z,100304.03
2023-03-06T08:49:51.568Z,100319.81
2023-03-06T08:52:19.853Z,100295.91
2023-03-06T08:54:46.508Z,100305.91
2023-03-06T08:57:13.013Z,100299.31
2023-03-06T08:59:39.562Z,100303.13
2023-03-06T09:02:07.606Z,100303.53
2023-03-06T09:04:34.329Z,100297.00
2023-03-06T09:07:00.933Z,100303.53
2023-03-06T09:09:27.435Z,100295.72
2023-03-06T09:11:54.900Z,100283.63
2023-03-06T09:14:21.361Z,100289.31
2023-03-06T09:16:47.835Z,100293.34
2023-03-06T09:19:14.356Z,100286.44
2023-03-06T09:21:40.831Z,100285.88
2023-03-06T09:24:07.603Z,100276.56
2023-03-06T09:26:45.495Z,100279.63
2023-03-06T09:29:13.374Z,100294.84
2023-03-06T09:31:39.910Z,100289.97
2023-03-06T09:34:06.364Z,100282.09
2023-03-06T09:36:40.226Z,100278.28
2023-03-06T09:39:12.532Z,100283.16
2023-03-06T09:41:42.333Z,100283.25
2023-03-06T09:44:18.574Z,100289.00
2023-03-06T09:47:00.266Z,100293.13
2023-03-06T09:49:40.054Z,100292.53
2023-03-06T09:52:30.652Z,100286.47
2023-03-06T09:54:59.432Z,100286.41
2023-03-06T09:57:30.772Z,100290.81
2023-03-06T10:00:05.832Z,100292.13
2023-03-06T10:02:44.441Z,100286.38
2023-03-06T10:05:19.886Z,100293.66
2023-03-06T10:07:52.814Z,100293.56
2023-03-06T10:10:27.150Z,100293.28
2023-03-06T10:13:15.263Z,100288.59
2023-03-06T10:15:46.144Z,100288.63
2023-03-06T10:18:13.390Z,100280.97
2023-03-06T10:20:45.645Z,100280.03
2023-03-06T10:23:30.613Z,100281.97
2023-03-06T10:26:01.227Z,100281.63
2023-03-06T10:28:30.655Z,100277.00
2023-03-06T10:31:16.889Z,100284.63
2023-03-06T10:33:49.551Z,100278.28
2023-03-06T10:36:17.745Z,100278.31
2023-03-06T10:38:45.528Z,100280.78
2023-03-06T10:41:11.966Z,100286.53
2023-03-06T10:44:03.772Z,100282.03
2023-03-06T10:46:35.879Z,100282.09
2023-03-06T10:49:05.368Z,100292.47
2023-03-06T10:51:34.141Z,100281.81
2023-03-06T10:54:03.995Z,100278.22
2023-03-06T10:56:34.665Z,100272.88
2023-03-06T10:59:26.555Z,100278.06
2023-03-06T11:01:55.899Z,100273.19
2023-03-06T11:04:31.279Z,100269.72
2023-03-06T11:07:17.899Z,100282.41
2023-03-06T11:09:56.634Z,100278.94
2023-03-06T11:12:36.709Z,100284.38
2023-03-06T11:15:17.443Z,100277.31
2023-03-06T11:17:52.492Z,100278.66
2023-03-06T11:20:22.344Z,100284.22
2023-03-06T11:22:54.913Z,100271.41
2023-03-06T11:25:26.260Z,100280.56
2023-03-06T11:27:59.368Z,100272.38
2023-03-06T11:30:44.230Z,100260.03
2023-03-06T11:33:30.560Z,100257.59
2023-03-06T11:36:13.255Z,100258.47
2023-03-06T11:38:53.641Z,100255.09
2023-03-06T11:41:29.162Z,100254.78
2023-03-06T11:44:06.399Z,100255.34
2023-03-06T11:46:44.317Z,100250.50
2023-03-06T11:49:26.228Z,100244.47
2023-03-06T11:52:00.587Z,100238.91
2023-03-06T11:54:27.280Z,100227.66
2023-03-06T11:56:59.729Z,100235.47
2023-03-06T11:59:41.396Z,100243.88
2023-03-06T12:02:13.640Z,100242.69
2023-03-06T12:04:47.949Z,100247.00
2023-03-06T12:07:29.682Z,100242.19
2023-03-06T12:10:23.415Z,100242.28
2023-03-06T12:13:08.999Z,100238.75
2023-03-06T12:15:56.183Z,100235.78
2023-03-06T12:18:57.437Z,100227.97
2023-03-06T12:21:38.208Z,100234.28
2023-03-06T12:24:17.871Z,100227.25
2023-03-06T12:26:54.722Z,100223.69
2023-03-06T12:29:42.892Z,100227.69
2023-03-06T12:32:16.977Z,100215.19
2023-03-06T12:35:08.731Z,100217.53
2023-03-06T12:37:44.062Z,100214.78
2023-03-06T12:40:46.424Z,100212.69
2023-03-06T12:43:48.032Z,100207.00
2023-03-06T12:46:18.864Z,100203.25
2023-03-06T12:49:07.724Z,100198.50
2023-03-06T12:51:34.743Z,100205.44
2023-03-06T12:54:03.368Z,100202.94
2023-03-06T12:56:31.968Z,100198.88
2023-03-06T12:59:02.683Z,100195.03
2023-03-06T13:01:48.891Z,100185.06
2023-03-06T13:04:51.971Z,100188.81
2023-03-06T13:07:43.416Z,100179.88
2023-03-06T13:10:25.369Z,100173.50
2023-03-06T13:13:05.236Z,100160.06
2023-03-06T13:15:40.683Z,100156.63
2023-03-06T13:18:22.605Z,100154.78
2023-03-06T13:20:51.214Z,100163.47
2023-03-06T13:23:29.760Z,100151.75
2023-03-06T13:25:58.141Z,100150.56
2023-03-06T13:28:44.983Z,100158.31
2023-03-06T13:31:38.122Z,100158.50
2023-03-06T13:34:06.211Z,100157.22
2023-03-06T13:36:39.569Z,100143.47
2023-03-06T13:39:10.484Z,100148.13
2023-03-06T13:41:58.363Z,100133.50
2023-03-06T13:44:24.818Z,100136.03
2023-03-06T13:47:05.067Z,100127.69
2023-03-06T13:49:33.553Z,100130.03
2023-03-06T13:52:08.579Z,100133.59
2023-03-06T13:55:04.015Z,100130.72
2023-03-06T13:57:48.537Z,100123.38
2023-03-06T14:00:43.446Z,100117.69
2023-03-06T14:03:15.655Z,100122.47
2023-03-06T14:05:43.354Z,100111.34
2023-03-06T14:08:22.072Z,100111.09
2023-03-06T14:11:00.841Z,100112.94
2023-03-06T14:13:45.262Z,100110.00
2023-03-06T14:16:32.662Z,100101.13
2023-03-06T14:19:04.215Z,100099.06
2023-03-06T14:21:49.073Z,100091.16
2023-03-06T14:24:18.069Z,100085.59
2023-03-06T14:26:50.287Z,100092.69
2023-03-06T14:29:24.994Z,100089.63
2023-03-06T14:31:54.228Z,100088.00
2023-03-06T14:34:22.476Z,100110.06
2023-03-06T14:36:54.235Z,100101.16
2023-03-06T14:39:35.597Z,100111.44
2023-03-06T14:42:17.076Z,100088.94
2023-03-06T14:44:43.760Z,100078.25
2023-03-06T14:47:28.538Z,100081.59
2023-03-06T14:50:21.485Z,100070.03
2023-03-06T14:52:49.350Z,100067.69
2023-03-06T14:55:22.259Z,100064.94
2023-03-06T14:57:58.166Z,100056.00
2023-03-06T15:00:30.159Z,100056.72
2023-03-06T15:02:57.873Z,100056.81
2023-03-06T15:05:28.490Z,100058.47
2023-03-06T15:07:59.444Z,100053.19
2023-03-06T15:10:32.260Z,100053.50
2023-03-06T15:13:20.721Z,100059.09
2023-03-06T15:16:13.782Z,100059.03
2023-03-06T15:18:54.324Z,100049.44
2023-03-06T15:21:22.765Z,100028.72
2023-03-06T15:23:51.854Z,100031.38
2023-03-06T15:26:28.712Z,100025.84
2023-03-06T15:29:09.904Z,100029.31
2023-03-06T15:31:39.085Z,100021.97
2023-03-06T15:34:11.518Z,100023.31
2023-03-06T15:36:39.150Z,100033.91
2023-03-06T15:39:27.059Z,100025.31
2023-03-06T15:41:58.368Z,100020.28
2023-03-06T15:44:25.642Z,100022.97
2023-03-06T15:46:59.239Z,100012.69
2023-03-06T15:49:33.044Z,100011.69
2023-03-06T15:51:59.495Z,100021.06
2023-03-06T15:54:25.997Z,100017.59
2023-03-06T15:56:52.564Z,100013.50
2023-03-06T15:59:25.576Z,100008.75
2023-03-06T16:01:53.237Z,100004.16
2023-03-06T16:04:20.067Z,100005.66
2023-03-06T16:06:46.656Z,99998.56
2023-03-06T16:09:13.897Z,99998.22
2023-03-06T16:11:47.080Z,99984.78
2023-03-06T16:14:21.058Z,99983.09
2023-03-06T16:16:49.330Z,99982.50
2023-03-06T16:19:26.002Z,99984.91
2023-03-06T16:21:54.451Z,99986.78
2023-03-06T16:24:20.927Z,99980.84
2023-03-06T16:26:50.856Z,99986.63
2023-03-06T16:29:19.356Z,99985.16
2023-03-06T16:31:46.374Z,99988.44
2023-03-06T16:34:12.961Z,99992.25
2023-03-06T16:36:40.336Z,99998.84
2023-03-06T16:39:11.868Z,100001.81
2023-03-06T16:41:38.298Z,99991.63
2023-03-06T16:44:07.690Z,99994.88
2023-03-06T16:46:38.665Z,99999.19
2023-03-06T16:49:05.110Z,99995.13
2023-03-06T16:51:31.910Z,99992.38
2023-03-06T16:53:58.356Z,99990.75
2023-03-06T16:56:24.875Z,99987.59
2023-03-06T16:58:51.349Z,99981.94
2023-03-06T17:01:19.966Z,99978.47
2023-03-06T17:03:46.522Z,99985.75
2023-03-06T17:06:23.231Z,99975.72
2023-03-06T17:08:50.414Z,99975.22
2023-03-06T17:11:17.701Z,99968.91
2023-03-06T17:13:44.284Z,99972.59
2023-03-06T17:16:18.051Z,99960.47
2023-03-06T17:18:45.683Z,99961.00
2023-03-06T17:21:17.320Z,99951.47
2023-03-06T17:23:44.574Z,99959.16
2023-03-06T17:26:18.126Z,99956.91
2023-03-06T17:28:45.578Z,99966.63
2023-03-06T17:31:14.439Z,99950.84
2023-03-06T17:33:41.383Z,99949.03
2023-03-06T17:36:09.000Z,99955.63
2023-03-06T17:38:35.696Z,99952.09
2023-03-06T17:41:06.669Z,99942.38
2023-03-06T17:43:34.184Z,99940.38
2023-03-06T17:46:12.437Z,99942.03
2023-03-06T17:48:39.768Z,99938.22
2023-03-06T17:51:06.718Z,99942.44
2023-03-06T17:53:33.300Z,99937.84
2023-03-06T17:56:00.111Z,99935.47
2023-03-06T17:58:27.445Z,99940.56
2023-03-06T18:00:54.301Z,99927.00
2023-03-06T18:03:21.180Z,99917.28
2023-03-06T18:05:48.080Z,99916.31
2023-03-06T18:08:14.577Z,99913.84
2023-03-06T18:10:41.961Z,99916.06
2023-03-06T18:13:10.148Z,99919.03
2023-03-06T18:15:41.547Z,99907.59
2023-03-06T18:18:08.660Z,99920.56
2023-03-06T18:20:40.684Z,99908.22
2023-03-06T18:23:07.105Z,99898.38
2023-03-06T18:25:33.662Z,99897.81
2023-03-06T18:28:00.163Z,99895.94
2023-03-06T18:30:26.904Z,99893.41
2023-03-06T18:32:53.919Z,99893.00
2023-03-06T18:35:21.144Z,99883.31
2023-03-06T18:37:47.702Z,99876.31
2023-03-06T18:40:14.481Z,99868.00
2023-03-06T18:42:40.926Z,99865.31
2023-03-06T18:45:08.020Z,99871.25
2023-03-06T18:47:34.426Z,99862.09
2023-03-06T18:50:02.775Z,99860.78
2023-03-06T18:52:29.285Z,99862.25
2023-03-06T18:54:55.826Z,99850.63
2023-03-06T18:57:22.297Z,99843.13
2023-03-06T18:59:49.044Z,99837.06
2023-03-06T19:02:15.607Z,99835.66
2023-03-06T19:04:42.070Z,99834.69
2023-03-06T19:07:08.491Z,99830.75
2023-03-06T19:09:35.054Z,99824.09
2023-03-06T19:12:03.522Z,99827.50
2023-03-06T19:14:30.625Z,99818.25
2023-03-06T19:16:57.351Z,99814.59
2023-03-06T19:19:26.932Z,99814.16
2023-03-06T19:21:53.736Z,99813.22
2023-03-06T19:24:20.307Z,99811.00
2023-03-06T19:26:46.979Z,99805.66
2023-03-06T19:29:13.472Z,99801.00
2023-03-06T19:31:40.020Z,99807.09
2023-03-06T19:34:06.603Z,99782.47
2023-03-06T19:36:34.234Z,99791.34
2023-03-06T19:39:03.866Z,99794.41
2023-03-06T19:41:30.544Z,99791.00
2023-03-06T19:43:59.416Z,99787.13
2023-03-06T19:46:26.797Z,99792.03
2023-03-06T19:49:01.687Z,99779.41
2023-03-06T19:51:29.040Z,99777.47
2023-03-06T19:53:57.457Z,99780.72
2023-03-06T19:56:26.814Z,99784.34
2023-03-06T19:58:53.501Z,99777.88
2023-03-06T20:01:21.894Z,99766.66
2023-03-06T20:03:50.669Z,99762.44
2023-03-06T20:06:19.478Z,99753.41
2023-03-06T20:08:47.432Z,99753.84
2023-03-06T20:11:25.231Z,99756.66
2023-03-06T20:13:51.746Z,99751.19
2023-03-06T20:16:18.851Z,99745.69
2023-03-06T20:18:45.677Z,99743.59
2023-03-06T20:21:12.532Z,99733.88
2023-03-06T20:23:39.138Z,99734.38
2023-03-06T20:26:09.504Z,99736.31
2023-03-06T20:28:38.141Z,99739.44
2023-03-06T20:31:17.747Z,99734.38
2023-03-06T20:33:49.637Z,99733.41
2023-03-06T20:36:19.452Z,99723.47
2023-03-06T20:38:46.900Z,99724.44
2023-03-06T20:41:18.814Z,99721.66
2023-03-06T20:43:45.742Z,99715.81
2023-03-06T20:46:13.616Z,99710.59
2023-03-06T20:48:41.669Z,99716.50
2023-03-06T20:51:16.258Z,99707.75
2023-03-06T20:53:42.740Z,99711.25
2023-03-06T20:56:16.526Z,99702.28
2023-03-06T20:58:43.588Z,99699.44
2023-03-06T21:01:18.396Z,99701.16
2023-03-06T21:03:44.914Z,99702.78
2023-03-06T21:06:11.409Z,99701.66
2023-03-06T21:08:37.934Z,99700.28
2023-03-06T21:11:04.534Z,99692.91
2023-03-06T21:13:30.960Z,99692.28
2023-03-06T21:15:57.499Z,99694.25
2023-03-06T21:18:24.129Z,99690.69
2023-03-06T21:20:50.710Z,99686.31
2023-03-06T21:23:17.224Z,99681.69
2023-03-06T21:25:50.588Z,99686.31
2023-03-06T21:28:17.285Z,99672.66
2023-03-06T21:30:44.565Z,99674.75
2023-03-06T21:33:11.714Z,99674.69
2023-03-06T21:35:42.531Z,99663.31
2023-03-06T21:38:09.602Z,99666.94
2023-03-06T21:40:36.493Z,99659.28
2023-03-06T21:43:03.572Z,99660.34
2023-03-06T21:45:31.198Z,99656.38
2023-03-06T21:48:00.509Z,99646.94
2023-03-06T21:50:28.271Z,99651.59
2023-03-06T21:52:56.301Z,99638.63
2023-03-06T21:55:23.007Z,99637.00
2023-03-06T21:57:53.946Z,99649.41
2023-03-06T22:00:23.234Z,99633.09
2023-03-06T22:02:50.564Z,99634.41
2023-03-06T22:05:17.116Z,99633.66
2023-03-06T22:07:43.631Z,99635.19
2023-03-06T22:10:15.628Z,99637.34
2023-03-06T22:12:42.225Z,99635.28
2023-03-06T22:15:09.573Z,99628.38
2023-03-06T22:17:36.180Z,99626.19
2023-03-06T22:20:02.698Z,99633.22
2023-03-06T22:22:29.178Z,99626.19
2023-03-06T22:24:55.635Z,99619.59
2023-03-06T22:27:22.107Z,99622.38
2023-03-06T22:29:48.522Z,99618.75
2023-03-06T22:32:15.528Z,99617.31
2023-03-06T22:34:42.074Z,99613.19
2023-03-06T22:37:08.487Z,99613.44
2023-03-06T22:39:34.951Z,99615.88
2023-03-06T22:42:01.463Z,99620.06
2023-03-06T22:44:27.885Z,99623.13
2023-03-06T22:46:54.608Z,99615.56
2023-03-06T22:49:21.082Z,99613.44
2023-03-06T22:51:47.520Z,99602.41
2023-03-06T22:54:14.119Z,99593.13
2023-03-06T22:56:40.743Z,99597.63
2023-03-06T22:59:07.188Z,99594.34
2023-03-06T23:01:34.770Z,99595.16
2023-03-06T23:04:03.775Z,99595.03
2023-03-06T23:06:36.201Z,99594.19
2023-03-06T23:09:03.282Z,99591.88
2023-03-06T23:11:30.687Z,99585.31
2023-03-06T23:13:57.554Z,99590.66
2023-03-06T23:16:24.119Z,99596.59
2023-03-06T23:18:53.014Z,99597.75
2023-03-06T23:21:21.187Z,99599.81
2023-03-06T23:23:49.800Z,99590.44
2023-03-06T23:26:18.178Z,99586.75
2023-03-06T23:28:44.828Z,99591.81
2023-03-06T23:31:18.084Z,99591.19
2023-03-06T23:33:44.687Z,99583.00
2023-03-06T23:36:13.272Z,99590.34
2023-03-06T23:38:40.794Z,99583.66
2023-03-06T23:41:10.998Z,99583.84
2023-03-06T23:43:37.448Z,99585.31
2023-03-06T23:46:04.770Z,99591.88
2023-03-06T23:48:31.762Z,99585.97
2023-03-06T23:50:58.384Z,99591.03
2023-03-06T23:53:25.453Z,99583.94
2023-03-06T23:55:53.802Z,99584.03
2023-03-06T23:58:20.418Z,99581.28
